Time;durP1;ratioP1;P1;durP2;ratioP2;P2;SDS_P1;SDS_P2;PMS_P1;PMS_P2;Temp;Humidity;BMP_temperature;BMP_pressure;BME280_temperature;BME280_humidity;BME280_pressure;Samples;Min_cycle;Max_cycle;Signal;HPM_P1;HPM_P2
2021/10/04 00:00:39;;;;;;;10.73;3.20;;;10.80;97.70;;;;;;5089092;28;20127;-63
2021/10/04 00:03:07;;;;;;;21.20;4.68;;;10.80;97.70;;;;;;5071675;28;20114;-63
2021/10/04 00:05:34;;;;;;;10.07;3.42;;;10.80;98.00;;;;;;5064326;28;20067;-64
2021/10/04 00:08:01;;;;;;;22.27;3.70;;;10.80;98.10;;;;;;5059624;28;20104;-66
2021/10/04 00:10:29;;;;;;;15.23;2.70;;;10.80;98.20;;;;;;5058524;28;20119;-64
2021/10/04 00:12:56;;;;;;;15.57;3.55;;;10.80;98.00;;;;;;5055190;28;20077;-64
2021/10/04 00:15:24;;;;;;;18.67;3.88;;;10.80;98.10;;;;;;5052864;28;20127;-64
2021/10/04 00:17:51;;;;;;;13.75;3.60;;;10.80;98.20;;;;;;5043077;28;20124;-64
2021/10/04 00:20:18;;;;;;;12.30;3.08;;;10.80;98.10;;;;;;5071291;28;20127;-63
2021/10/04 00:22:45;;;;;;;11.80;3.13;;;10.80;98.20;;;;;;5060155;28;20528;-64
2021/10/04 00:25:12;;;;;;;13.52;3.42;;;10.80;98.20;;;;;;5057025;28;20123;-63
2021/10/04 00:27:39;;;;;;;17.08;5.35;;;10.80;98.10;;;;;;5082097;28;20124;-63
2021/10/04 00:30:07;;;;;;;20.42;3.60;;;10.80;98.20;;;;;;5075799;28;20111;-65
2021/10/04 00:32:35;;;;;;;15.85;3.65;;;10.80;98.20;;;;;;5060372;28;20052;-63
2021/10/04 00:35:04;;;;;;;23.42;4.95;;;10.90;98.10;;;;;;5052093;28;20055;-63
2021/10/04 00:37:31;;;;;;;17.65;3.97;;;10.90;98.10;;;;;;5082917;28;20088;-64
2021/10/04 00:39:58;;;;;;;15.80;4.28;;;10.90;98.00;;;;;;5077590;28;20049;-64
2021/10/04 00:42:25;;;;;;;21.60;3.72;;;11.00;97.80;;;;;;5078064;28;20040;-64
2021/10/04 00:44:52;;;;;;;20.63;4.03;;;11.10;97.80;;;;;;5062080;28;20127;-66
2021/10/04 00:47:19;;;;;;;18.92;3.33;;;11.10;97.60;;;;;;5053425;28;20066;-63
2021/10/04 00:49:46;;;;;;;15.40;4.07;;;11.10;97.40;;;;;;5078855;28;20120;-63
2021/10/04 00:52:13;;;;;;;20.17;4.63;;;11.20;97.40;;;;;;5069249;28;20085;-64
2021/10/04 00:54:40;;;;;;;15.07;3.30;;;11.20;97.20;;;;;;5080017;28;20063;-64
2021/10/04 00:57:07;;;;;;;20.30;3.75;;;11.20;97.30;;;;;;5083129;28;20085;-64
2021/10/04 00:59:34;;;;;;;16.70;3.22;;;11.20;97.30;;;;;;5086260;28;20044;-64
2021/10/04 01:02:01;;;;;;;18.30;3.25;;;11.20;97.30;;;;;;5067947;28;20059;-64
2021/10/04 01:04:28;;;;;;;16.27;3.75;;;11.20;97.40;;;;;;5081178;28;20492;-64
2021/10/04 01:06:56;;;;;;;14.77;3.72;;;11.30;97.40;;;;;;5061439;28;20051;-63
2021/10/04 01:09:24;;;;;;;31.58;5.97;;;11.40;97.40;;;;;;5081778;28;20149;-63
2021/10/04 01:11:51;;;;;;;17.73;3.45;;;11.40;97.30;;;;;;5081568;28;20564;-64
2021/10/04 01:14:19;;;;;;;19.17;2.90;;;11.50;97.00;;;;;;5082570;28;20127;-64
2021/10/04 01:16:45;;;;;;;20.00;4.45;;;11.50;97.00;;;;;;5086573;28;20052;-63
2021/10/04 01:19:13;;;;;;;16.50;5.65;;;11.60;96.90;;;;;;5049856;28;20044;-65
2021/10/04 01:21:40;;;;;;;17.83;4.20;;;11.60;96.80;;;;;;5068484;28;20054;-64
2021/10/04 01:24:07;;;;;;;27.83;5.45;;;11.60;96.60;;;;;;5088393;28;20084;-63
2021/10/04 01:26:34;;;;;;;14.73;4.63;;;11.70;96.30;;;;;;5046256;28;20444;-64
2021/10/04 01:29:01;;;;;;;19.45;4.38;;;11.70;96.00;;;;;;5078421;28;20130;-64
2021/10/04 01:31:28;;;;;;;17.02;3.80;;;11.70;95.90;;;;;;5065223;28;20518;-63
2021/10/04 01:33:55;;;;;;;18.52;3.70;;;11.70;95.90;;;;;;5069286;28;20090;-63
2021/10/04 01:36:25;;;;;;;12.60;3.42;;;11.70;95.90;;;;;;5048004;28;20049;-64
2021/10/04 01:38:55;;;;;;;15.18;3.72;;;11.70;96.00;;;;;;5058323;28;20127;-64
2021/10/04 01:41:22;;;;;;;18.55;4.15;;;11.80;96.00;;;;;;5076208;28;20098;-64
2021/10/04 01:43:50;;;;;;;13.93;3.42;;;11.80;96.00;;;;;;5072593;28;20124;-64
2021/10/04 01:46:17;;;;;;;16.48;4.60;;;11.90;96.30;;;;;;5078063;28;20576;-64
2021/10/04 01:48:45;;;;;;;16.38;3.47;;;11.90;95.70;;;;;;5059241;28;20044;-64
2021/10/04 01:51:12;;;;;;;17.52;3.45;;;11.90;95.70;;;;;;5083093;28;20037;-63
2021/10/04 01:53:39;;;;;;;16.23;3.58;;;12.00;95.80;;;;;;5075915;28;20126;-64
2021/10/04 01:56:06;;;;;;;12.77;3.75;;;12.00;95.60;;;;;;5068211;28;20348;-64
2021/10/04 01:58:33;;;;;;;17.83;4.32;;;12.00;95.80;;;;;;5068672;28;20410;-64
2021/10/04 02:01:01;;;;;;;17.20;3.80;;;12.00;95.40;;;;;;5085250;28;20496;-66
2021/10/04 02:03:28;;;;;;;15.85;2.97;;;12.00;95.40;;;;;;5059834;28;20060;-64
2021/10/04 02:05:58;;;;;;;11.88;3.58;;;11.90;95.50;;;;;;5061517;28;20563;-63
2021/10/04 02:08:25;;;;;;;12.98;4.47;;;11.90;95.50;;;;;;5062066;28;20071;-64
2021/10/04 02:10:52;;;;;;;15.20;3.67;;;11.80;95.60;;;;;;5059670;28;20048;-64
2021/10/04 02:13:19;;;;;;;17.50;3.85;;;11.80;95.80;;;;;;5075841;28;20131;-64
2021/10/04 02:15:46;;;;;;;20.92;5.30;;;11.70;95.80;;;;;;5074882;28;20131;-64
2021/10/04 02:18:13;;;;;;;16.38;3.42;;;11.60;95.90;;;;;;5090152;28;20491;-64
2021/10/04 02:20:42;;;;;;;18.27;3.67;;;11.60;96.00;;;;;;5078363;28;20082;-63
2021/10/04 02:23:10;;;;;;;18.80;3.13;;;11.60;96.20;;;;;;5088258;28;20048;-64
2021/10/04 02:25:39;;;;;;;16.45;4.13;;;11.50;96.20;;;;;;5055048;28;20052;-64
2021/10/04 02:28:06;;;;;;;18.17;4.32;;;11.40;96.40;;;;;;5027958;28;20123;-64
2021/10/04 02:30:33;;;;;;;18.02;3.75;;;11.40;96.50;;;;;;5076481;28;20047;-63
2021/10/04 02:33:00;;;;;;;20.38;5.20;;;11.50;96.50;;;;;;5044484;28;20102;-65
2021/10/04 02:35:27;;;;;;;19.80;3.58;;;11.40;96.50;;;;;;5067656;28;20048;-64
2021/10/04 02:37:54;;;;;;;18.98;3.80;;;11.40;96.50;;;;;;5055635;28;20521;-64
2021/10/04 02:40:22;;;;;;;16.95;3.80;;;11.40;96.50;;;;;;5042814;28;20519;-64
2021/10/04 02:42:51;;;;;;;14.32;2.80;;;11.30;96.50;;;;;;5046488;28;20115;-63
2021/10/04 02:45:18;;;;;;;18.67;3.58;;;11.30;96.70;;;;;;5058056;28;20179;-63
2021/10/04 02:47:46;;;;;;;16.15;3.47;;;11.30;96.70;;;;;;5058641;28;20111;-64
2021/10/04 02:50:15;;;;;;;15.98;3.10;;;11.20;96.80;;;;;;5050086;28;20062;-64
2021/10/04 02:52:42;;;;;;;17.85;4.63;;;11.20;96.80;;;;;;5063460;28;20495;-64
2021/10/04 02:55:09;;;;;;;15.40;3.42;;;11.10;97.00;;;;;;5059665;28;20079;-64
2021/10/04 02:57:36;;;;;;;19.85;4.40;;;11.10;97.40;;;;;;5037515;28;20080;-64
2021/10/04 03:00:05;;;;;;;16.83;4.10;;;11.10;97.10;;;;;;5042326;28;20047;-64
2021/10/04 03:02:32;;;;;;;14.82;3.85;;;11.10;97.20;;;;;;5041804;28;20078;-64
2021/10/04 03:04:59;;;;;;;11.45;3.45;;;11.10;97.10;;;;;;5089455;28;20140;-63
2021/10/04 03:07:26;;;;;;;16.73;3.45;;;11.10;97.20;;;;;;5089774;28;20043;-64
2021/10/04 03:09:53;;;;;;;14.63;3.42;;;11.10;97.50;;;;;;5089955;28;20071;-64
2021/10/04 03:12:20;;;;;;;19.95;5.57;;;11.00;97.70;;;;;;5090337;28;20048;-64
2021/10/04 03:14:47;;;;;;;16.05;3.53;;;11.00;98.00;;;;;;5088364;28;20208;-65
2021/10/04 03:17:14;;;;;;;21.15;3.63;;;11.00;98.20;;;;;;5071375;28;20075;-64
2021/10/04 03:19:42;;;;;;;16.40;3.85;;;11.00;98.30;;;;;;5071696;28;20043;-64
2021/10/04 03:22:09;;;;;;;19.63;3.97;;;11.00;98.40;;;;;;5051063;28;20071;-64
2021/10/04 03:24:36;;;;;;;15.00;3.63;;;11.00;98.60;;;;;;5071920;28;20050;-64
2021/10/04 03:27:03;;;;;;;20.13;4.95;;;11.00;98.60;;;;;;5089733;28;20048;-65
2021/10/04 03:29:30;;;;;;;17.52;4.40;;;11.10;99.20;;;;;;5083609;28;20044;-64
2021/10/04 03:31:57;;;;;;;14.63;3.97;;;11.10;99.60;;;;;;5088907;28;20044;-64
2021/10/04 03:34:24;;;;;;;13.65;3.90;;;11.10;99.70;;;;;;5071587;28;20063;-64
2021/10/04 03:36:51;;;;;;;22.60;5.35;;;11.10;99.80;;;;;;5071736;28;20040;-65
2021/10/04 03:39:18;;;;;;;17.65;3.65;;;11.20;99.90;;;;;;5069393;28;20059;-65
2021/10/04 03:41:45;;;;;;;14.60;3.35;;;11.30;99.70;;;;;;5064761;28;20050;-64
2021/10/04 03:44:12;;;;;;;16.60;3.08;;;11.30;99.80;;;;;;5068380;28;20054;-64
2021/10/04 03:46:40;;;;;;;15.82;4.28;;;11.30;99.50;;;;;;5086624;28;20380;-64
2021/10/04 03:49:07;;;;;;;16.48;3.95;;;11.30;99.70;;;;;;5088197;28;20044;-64
2021/10/04 03:51:34;;;;;;;18.88;3.40;;;11.30;99.40;;;;;;5053672;28;20122;-64
2021/10/04 03:54:02;;;;;;;13.25;3.35;;;11.30;99.20;;;;;;5071994;28;20049;-65
2021/10/04 03:56:29;;;;;;;9.63;2.10;;;11.30;98.50;;;;;;5071096;28;20127;-64
2021/10/04 03:58:55;;;;;;;9.32;2.22;;;11.30;97.70;;;;;;5070422;28;20068;-63
2021/10/04 04:01:22;;;;;;;14.77;2.38;;;11.20;98.20;;;;;;5089143;28;20044;-64
2021/10/04 04:03:52;;;;;;;7.95;1.70;;;11.20;97.90;;;;;;5049863;28;20097;-63
2021/10/04 04:06:19;;;;;;;7.03;2.60;;;11.10;97.60;;;;;;5061238;28;20124;-65
2021/10/04 04:08:46;;;;;;;9.95;2.00;;;11.10;97.90;;;;;;5077010;28;20052;-65
2021/10/04 04:11:13;;;;;;;6.72;1.95;;;11.00;98.00;;;;;;5056920;28;20381;-65
2021/10/04 04:13:40;;;;;;;11.85;2.83;;;10.90;98.30;;;;;;5064985;28;20492;-65
2021/10/04 04:16:08;;;;;;;7.55;1.75;;;10.90;97.40;;;;;;5077037;28;20056;-64
2021/10/04 04:18:35;;;;;;;6.95;1.95;;;10.80;97.30;;;;;;5077676;28;20051;-65
2021/10/04 04:21:02;;;;;;;7.13;2.50;;;10.80;97.70;;;;;;5036910;28;20048;-63
2021/10/04 04:23:29;;;;;;;3.28;1.48;;;10.70;97.10;;;;;;5071876;28;20066;-65
2021/10/04 04:25:55;;;;;;;6.00;1.63;;;10.70;97.00;;;;;;5062277;28;20510;-65
2021/10/04 04:28:24;;;;;;;6.95;1.85;;;10.70;96.80;;;;;;5074370;28;20051;-66
2021/10/04 04:30:51;;;;;;;6.30;1.52;;;10.70;96.40;;;;;;5064504;28;20064;-63
2021/10/04 04:33:18;;;;;;;2.95;1.50;;;10.60;97.00;;;;;;5078267;28;20469;-64
2021/10/04 04:35:45;;;;;;;3.05;1.10;;;10.70;96.90;;;;;;5066252;28;20052;-64
2021/10/04 04:38:15;;;;;;;4.65;1.52;;;10.60;96.50;;;;;;5081321;28;20047;-63
2021/10/04 04:40:44;;;;;;;3.72;1.50;;;10.60;96.80;;;;;;5063964;28;20049;-64
2021/10/04 04:43:11;;;;;;;5.88;1.40;;;10.60;97.50;;;;;;5069402;28;20047;-64
2021/10/04 04:45:38;;;;;;;4.20;0.90;;;10.50;97.70;;;;;;5087395;28;20047;-64
2021/10/04 04:48:05;;;;;;;2.75;1.02;;;10.50;97.80;;;;;;5064375;28;20049;-64
2021/10/04 04:50:32;;;;;;;3.38;0.80;;;10.50;98.40;;;;;;5086683;28;20397;-64
2021/10/04 04:52:59;;;;;;;6.22;1.33;;;10.50;98.20;;;;;;5050769;28;20532;-66
2021/10/04 04:55:26;;;;;;;2.75;0.93;;;10.50;98.20;;;;;;5059016;28;20054;-64
2021/10/04 04:57:54;;;;;;;3.60;1.27;;;10.50;98.20;;;;;;5067346;28;20048;-64
2021/10/04 05:00:21;;;;;;;8.05;1.23;;;10.50;98.30;;;;;;5075366;28;20045;-65
2021/10/04 05:02:48;;;;;;;4.15;1.10;;;10.50;98.40;;;;;;5075442;28;20139;-64
2021/10/04 05:05:16;;;;;;;7.30;2.15;;;10.50;98.50;;;;;;5076012;28;20128;-64
2021/10/04 05:07:44;;;;;;;3.47;1.35;;;10.50;98.40;;;;;;5049014;28;20049;-64
2021/10/04 05:10:11;;;;;;;3.72;1.33;;;10.50;98.60;;;;;;5086435;28;20055;-63
2021/10/04 05:12:39;;;;;;;8.00;1.60;;;10.50;99.00;;;;;;5077631;28;20087;-63
2021/10/04 05:15:06;;;;;;;5.82;1.10;;;10.50;98.90;;;;;;5044640;28;20576;-63
2021/10/04 05:17:33;;;;;;;9.07;1.98;;;10.60;99.10;;;;;;5078601;28;20048;-64
2021/10/04 05:20:00;;;;;;;6.47;1.33;;;10.60;99.30;;;;;;5066612;28;20040;-64
2021/10/04 05:22:27;;;;;;;6.20;1.83;;;10.60;99.30;;;;;;5062052;28;20155;-64
2021/10/04 05:24:55;;;;;;;5.25;1.35;;;10.50;99.30;;;;;;5078005;28;20048;-64
2021/10/04 05:27:23;;;;;;;4.07;1.27;;;10.50;99.50;;;;;;5073447;28;20565;-64
2021/10/04 05:29:50;;;;;;;6.68;1.60;;;10.50;99.60;;;;;;5085244;28;20142;-64
2021/10/04 05:32:17;;;;;;;7.53;1.58;;;10.50;99.40;;;;;;5078193;28;20072;-64
2021/10/04 05:34:44;;;;;;;5.90;1.63;;;10.50;99.40;;;;;;5056153;28;20146;-64
2021/10/04 05:37:11;;;;;;;4.15;1.58;;;10.50;99.50;;;;;;5058556;28;20047;-64
2021/10/04 05:39:38;;;;;;;5.63;1.25;;;10.50;99.50;;;;;;5045162;28;20074;-63
2021/10/04 05:42:06;;;;;;;17.65;8.30;;;10.50;99.60;;;;;;5049482;28;20070;-61
2021/10/04 05:44:33;;;;;;;11.00;7.63;;;10.50;99.70;;;;;;5054139;28;20468;-61
2021/10/04 05:47:00;;;;;;;5.18;1.38;;;10.50;99.90;;;;;;5075535;28;20095;-66
2021/10/04 05:49:27;;;;;;;6.57;2.20;;;10.50;99.60;;;;;;5089290;28;20048;-62
2021/10/04 05:51:54;;;;;;;5.88;1.20;;;10.50;99.30;;;;;;5082998;28;20449;-66
2021/10/04 05:54:21;;;;;;;6.28;1.30;;;10.50;99.10;;;;;;5054447;28;20049;-64
2021/10/04 05:56:48;;;;;;;4.97;1.33;;;10.50;98.80;;;;;;5077149;28;20048;-63
2021/10/04 05:59:15;;;;;;;3.95;1.10;;;10.40;98.70;;;;;;5064309;28;20470;-65
2021/10/04 06:01:42;;;;;;;4.18;1.20;;;10.30;98.50;;;;;;5063335;28;20045;-65
2021/10/04 06:04:09;;;;;;;8.40;1.50;;;10.30;98.50;;;;;;5067492;28;20056;-65
2021/10/04 06:06:36;;;;;;;7.22;5.43;;;10.30;98.90;;;;;;5071460;28;20399;-69
2021/10/04 06:09:03;;;;;;;11.10;7.00;;;10.20;99.30;;;;;;5078471;28;20131;-69
2021/10/04 06:11:30;;;;;;;9.25;1.50;;;10.20;99.40;;;;;;5041983;28;20095;-69
2021/10/04 06:13:57;;;;;;;3.85;1.30;;;10.20;99.50;;;;;;5059920;28;20051;-65
2021/10/04 06:16:24;;;;;;;5.10;2.10;;;10.20;99.40;;;;;;5059193;28;20459;-69
2021/10/04 06:18:52;;;;;;;4.63;1.67;;;10.20;99.60;;;;;;5086257;28;20392;-67
2021/10/04 06:21:18;;;;;;;8.27;2.00;;;10.30;99.80;;;;;;5065573;28;20060;-74
2021/10/04 06:23:46;;;;;;;3.60;1.38;;;10.30;99.70;;;;;;5041719;28;20060;-71
2021/10/04 06:26:13;;;;;;;8.02;2.35;;;10.30;99.80;;;;;;5055857;28;20494;-71
2021/10/04 06:28:40;;;;;;;5.13;1.30;;;10.40;99.70;;;;;;5043864;28;20080;-63
2021/10/04 06:31:07;;;;;;;4.78;1.30;;;10.40;99.40;;;;;;5055959;28;20048;-62
2021/10/04 06:33:34;;;;;;;4.22;1.13;;;10.40;99.50;;;;;;5058733;28;20127;-62
2021/10/04 06:36:02;;;;;;;3.42;1.25;;;10.40;99.30;;;;;;5071027;28;20048;-62
2021/10/04 06:38:29;;;;;;;6.38;2.00;;;10.40;99.40;;;;;;5071638;28;20146;-63
2021/10/04 06:40:56;;;;;;;5.03;2.85;;;10.30;99.30;;;;;;5054259;28;20052;-62
2021/10/04 06:43:23;;;;;;;14.32;5.13;;;10.30;99.30;;;;;;5071307;28;20053;-65
2021/10/04 06:45:50;;;;;;;5.25;1.52;;;10.30;99.20;;;;;;5070309;28;20066;-62
2021/10/04 06:48:16;;;;;;;8.20;2.10;;;10.30;99.10;;;;;;5051257;28;20064;-61
2021/10/04 06:50:43;;;;;;;6.35;1.58;;;10.30;99.20;;;;;;5069940;28;20046;-62
2021/10/04 06:53:10;;;;;;;6.68;1.90;;;10.30;99.30;;;;;;5069063;28;20098;-61
2021/10/04 06:55:37;;;;;;;4.60;1.30;;;10.20;99.20;;;;;;5059903;28;20036;-61
2021/10/04 06:58:04;;;;;;;6.13;1.30;;;10.20;99.20;;;;;;5037415;28;20044;-63
2021/10/04 07:00:31;;;;;;;5.97;1.73;;;10.20;99.40;;;;;;5080488;28;20036;-60
2021/10/04 07:03:00;;;;;;;4.55;1.33;;;10.20;99.20;;;;;;5081336;28;20059;-65
2021/10/04 07:05:28;;;;;;;3.97;1.13;;;10.20;99.30;;;;;;5080351;28;20688;-63
2021/10/04 07:07:56;;;;;;;8.75;1.40;;;10.20;99.40;;;;;;5069506;28;20127;-64
2021/10/04 07:10:24;;;;;;;5.57;1.85;;;10.20;99.30;;;;;;5056596;28;20127;-64
2021/10/04 07:12:51;;;;;;;3.45;1.10;;;10.10;99.30;;;;;;5049431;28;20058;-64
2021/10/04 07:15:20;;;;;;;5.47;1.40;;;10.20;99.40;;;;;;5077219;28;20170;-64
2021/10/04 07:17:47;;;;;;;9.63;1.20;;;10.10;99.60;;;;;;5071044;28;20484;-64
2021/10/04 07:20:14;;;;;;;6.53;1.50;;;10.20;99.70;;;;;;5056501;28;20131;-65
2021/10/04 07:22:41;;;;;;;7.07;1.83;;;10.20;99.60;;;;;;5065023;28;20055;-65
2021/10/04 07:25:08;;;;;;;5.78;1.20;;;10.20;99.50;;;;;;5070152;28;20472;-63
2021/10/04 07:27:36;;;;;;;8.23;1.40;;;10.30;99.70;;;;;;5052715;28;20575;-64
2021/10/04 07:30:04;;;;;;;3.42;1.33;;;10.30;99.60;;;;;;5070129;28;20044;-64
2021/10/04 07:32:31;;;;;;;5.13;1.02;;;10.30;99.50;;;;;;5038462;28;20395;-64
2021/10/04 07:34:58;;;;;;;2.90;1.33;;;10.40;99.50;;;;;;5064460;28;20533;-65
2021/10/04 07:37:25;;;;;;;5.47;1.20;;;10.40;99.80;;;;;;5068396;28;20553;-64
2021/10/04 07:39:54;;;;;;;5.60;3.97;;;10.40;99.40;;;;;;5059116;28;20066;-63
2021/10/04 07:42:21;;;;;;;8.98;5.78;;;10.50;99.50;;;;;;5075021;28;20045;-64
2021/10/04 07:44:48;;;;;;;4.75;2.85;;;10.60;99.20;;;;;;5051176;28;20074;-64
2021/10/04 07:47:15;;;;;;;4.97;1.70;;;10.60;99.00;;;;;;5063040;28;20102;-65
2021/10/04 07:49:44;;;;;;;3.85;1.10;;;10.60;98.70;;;;;;5065199;28;20408;-65
2021/10/04 07:52:13;;;;;;;7.38;2.05;;;10.70;98.80;;;;;;5067231;28;20135;-64
2021/10/04 07:54:40;;;;;;;3.03;1.35;;;10.70;99.20;;;;;;5060176;28;20040;-64
2021/10/04 07:57:13;;;;;;;3.65;1.13;;;10.80;98.90;;;;;;5066111;28;20541;-65
2021/10/04 07:59:40;;;;;;;3.93;1.10;;;10.80;98.80;;;;;;5052707;28;20135;-65
2021/10/04 08:02:08;;;;;;;3.50;1.15;;;10.80;99.20;;;;;;5051557;28;20127;-65
2021/10/04 08:04:36;;;;;;;6.90;2.22;;;10.90;99.20;;;;;;5050474;28;20059;-70
2021/10/04 08:07:06;;;;;;;9.43;1.77;;;11.00;99.20;;;;;;5042363;28;20040;-67
2021/10/04 08:09:33;;;;;;;6.15;1.42;;;11.10;99.30;;;;;;5074728;28;20040;-67
2021/10/04 08:12:00;;;;;;;5.47;1.58;;;11.20;99.00;;;;;;5074024;28;20403;-67
2021/10/04 08:14:27;;;;;;;7.53;1.75;;;11.30;99.20;;;;;;5085068;28;20135;-70
2021/10/04 08:16:54;;;;;;;3.22;1.00;;;11.30;99.10;;;;;;5050455;28;20481;-67
2021/10/04 08:19:21;;;;;;;9.57;1.55;;;11.30;98.80;;;;;;5080142;28;20127;-67
2021/10/04 08:21:48;;;;;;;5.97;1.75;;;11.40;98.80;;;;;;5056410;28;20065;-66
2021/10/04 08:24:15;;;;;;;4.53;1.30;;;11.50;98.80;;;;;;5066099;28;22017;-67
2021/10/04 08:26:42;;;;;;;6.07;1.35;;;11.50;98.70;;;;;;5079454;28;20048;-66
2021/10/04 08:29:09;;;;;;;6.95;1.60;;;11.60;99.00;;;;;;5060441;28;20048;-67
2021/10/04 08:31:36;;;;;;;4.25;2.08;;;11.60;98.40;;;;;;5077211;28;20051;-66
2021/10/04 08:34:04;;;;;;;5.72;1.67;;;11.60;98.60;;;;;;5071176;28;20051;-70
2021/10/04 08:36:31;;;;;;;4.28;1.48;;;11.60;98.80;;;;;;5048801;28;20071;-71
2021/10/04 08:38:58;;;;;;;12.02;2.72;;;11.80;98.90;;;;;;5068020;28;20561;-68
2021/10/04 08:41:25;;;;;;;11.43;1.77;;;11.80;99.20;;;;;;5077124;28;20048;-67
2021/10/04 08:43:53;;;;;;;10.65;2.35;;;12.00;98.90;;;;;;5040327;28;20349;-68
2021/10/04 08:46:20;;;;;;;9.35;2.63;;;12.00;98.70;;;;;;5073086;28;20559;-66
2021/10/04 08:48:49;;;;;;;7.00;2.20;;;12.10;97.90;;;;;;5055725;28;20135;-67
2021/10/04 08:51:16;;;;;;;6.10;1.50;;;12.10;98.00;;;;;;5043386;28;20048;-70
2021/10/04 08:53:45;;;;;;;7.13;2.03;;;12.20;98.00;;;;;;5069212;28;20048;-69
2021/10/04 08:56:13;;;;;;;11.02;1.88;;;12.20;97.30;;;;;;5092285;28;20044;-67
2021/10/04 08:58:40;;;;;;;13.68;2.55;;;12.30;97.70;;;;;;5058745;28;20125;-65
2021/10/04 09:01:08;;;;;;;8.15;2.25;;;12.40;96.70;;;;;;5087182;28;20044;-65
2021/10/04 09:03:47;;;;;;;8.02;2.08;;;12.40;97.30;;;;;;5068408;28;20131;-63
2021/10/04 09:06:33;;;;;;;4.73;2.00;;;12.40;96.90;;;;;;5070582;28;20044;-64
2021/10/04 09:09:03;;;;;;;7.90;1.73;;;12.50;97.00;;;;;;5048835;28;20484;-64
2021/10/04 09:11:35;;;;;;;14.00;2.22;;;12.50;97.30;;;;;;5046457;28;20519;-66
2021/10/04 09:14:15;;;;;;;11.65;2.10;;;12.60;96.90;;;;;;5059978;28;20131;-63
2021/10/04 09:17:02;;;;;;;8.25;1.73;;;12.60;96.80;;;;;;5072455;28;20040;-62
2021/10/04 09:19:29;;;;;;;9.02;2.15;;;12.60;96.30;;;;;;5077109;28;20045;-67
2021/10/04 09:22:12;;;;;;;8.02;2.28;;;12.60;97.20;;;;;;5074099;28;20052;-68
2021/10/04 09:25:04;;;;;;;12.02;2.05;;;12.70;96.20;;;;;;5073901;28;20041;-64
2021/10/04 09:27:31;;;;;;;5.68;1.60;;;12.70;96.60;;;;;;5066490;28;20044;-63
2021/10/04 09:30:00;;;;;;;11.20;2.55;;;12.80;96.40;;;;;;5066641;28;20051;-67
2021/10/04 09:32:48;;;;;;;5.35;1.55;;;12.90;96.50;;;;;;5054669;28;20052;-62
2021/10/04 09:35:20;;;;;;;6.70;1.83;;;13.00;95.80;;;;;;5045938;28;20414;-64
2021/10/04 09:38:11;;;;;;;6.75;2.00;;;13.00;96.10;;;;;;5085548;28;20045;-63
2021/10/04 09:40:45;;;;;;;6.90;1.77;;;13.00;96.40;;;;;;5077866;28;20510;-63
2021/10/04 09:43:23;;;;;;;7.90;1.65;;;13.10;96.00;;;;;;5068582;28;20068;-64
2021/10/04 09:46:07;;;;;;;6.80;1.80;;;13.10;95.30;;;;;;5078295;28;20077;-64
2021/10/04 09:48:39;;;;;;;4.25;1.38;;;13.20;95.20;;;;;;5046344;28;20303;-64
2021/10/04 09:51:16;;;;;;;5.10;1.30;;;13.20;95.00;;;;;;5038827;28;20501;-66
2021/10/04 09:54:17;;;;;;;7.53;1.63;;;13.20;94.40;;;;;;5072378;28;20064;-72
2021/10/04 09:56:45;;;;;;;5.18;1.80;;;13.30;94.80;;;;;;5028014;28;20508;-68
2021/10/04 09:59:12;;;;;;;4.63;1.38;;;13.40;94.90;;;;;;5067937;28;20098;-65
2021/10/04 10:01:40;;;;;;;7.13;1.85;;;13.40;92.10;;;;;;5083157;28;20041;-67
2021/10/04 10:04:07;;;;;;;7.30;1.92;;;13.40;93.90;;;;;;5079341;28;20107;-63
2021/10/04 10:06:34;;;;;;;6.55;1.98;;;13.40;92.50;;;;;;5091405;28;20479;-65
2021/10/04 10:09:02;;;;;;;4.60;1.88;;;13.40;91.80;;;;;;5091730;28;20222;-68
2021/10/04 10:11:31;;;;;;;8.63;1.55;;;13.40;93.00;;;;;;5053766;28;20054;-65
2021/10/04 10:14:00;;;;;;;5.95;2.28;;;13.40;91.40;;;;;;5075535;28;20100;-64
2021/10/04 10:16:37;;;;;;;8.60;2.42;;;13.40;92.20;;;;;;5059805;28;20119;-65
2021/10/04 10:19:07;;;;;;;4.00;1.45;;;13.40;92.30;;;;;;5018882;28;20057;-64
2021/10/04 10:21:35;;;;;;;8.88;1.70;;;13.50;93.40;;;;;;5070918;28;20052;-65
2021/10/04 10:24:10;;;;;;;7.22;2.30;;;13.60;91.90;;;;;;5063429;28;20055;-62
2021/10/04 10:26:41;;;;;;;10.10;1.60;;;13.70;92.30;;;;;;5073698;28;20086;-62
2021/10/04 10:29:17;;;;;;;4.57;1.48;;;13.80;91.70;;;;;;5078479;28;20084;-68
2021/10/04 10:31:54;;;;;;;4.72;1.40;;;13.90;91.70;;;;;;5089395;28;20114;-64
2021/10/04 10:34:33;;;;;;;4.78;1.40;;;14.00;91.60;;;;;;5091219;28;20109;-64
2021/10/04 10:37:03;;;;;;;3.97;1.83;;;14.10;90.50;;;;;;5091640;28;20055;-64
2021/10/04 10:39:38;;;;;;;6.30;1.38;;;14.10;90.80;;;;;;5091194;28;20050;-65
2021/10/04 10:42:14;;;;;;;6.13;1.60;;;14.10;91.30;;;;;;5033668;28;20116;-64
2021/10/04 10:44:57;;;;;;;10.82;1.88;;;14.10;91.60;;;;;;5060773;28;20490;-60
2021/10/04 10:47:36;;;;;;;6.78;1.40;;;14.20;92.00;;;;;;5052813;28;20467;-60
2021/10/04 10:50:24;;;;;;;71.18;54.67;;;14.20;91.80;;;;;;5064699;28;20044;-60
2021/10/04 10:52:57;;;;;;;5.57;3.30;;;14.20;91.40;;;;;;5053271;28;20119;-63
2021/10/04 10:55:24;;;;;;;10.07;2.58;;;14.30;91.20;;;;;;5064291;28;20040;-63
2021/10/04 10:57:57;;;;;;;7.60;1.60;;;14.30;92.00;;;;;;5085888;28;20480;-71
2021/10/04 11:00:47;;;;;;;4.75;1.50;;;14.30;90.70;;;;;;5074650;28;20120;-72
2021/10/04 11:03:21;;;;;;;20.00;2.80;;;14.30;90.70;;;;;;5060250;28;20076;-71
2021/10/04 11:06:07;;;;;;;5.88;1.80;;;14.40;88.80;;;;;;5040702;28;20127;-72
2021/10/04 11:08:43;;;;;;;6.15;1.92;;;14.40;90.30;;;;;;5062859;28;20068;-72
2021/10/04 11:11:11;;;;;;;8.70;1.83;;;14.40;91.10;;;;;;5062784;28;20065;-73
2021/10/04 11:13:39;;;;;;;4.20;1.38;;;14.50;90.00;;;;;;5062619;28;20044;-62
2021/10/04 11:16:09;;;;;;;7.63;2.38;;;14.60;88.50;;;;;;5070052;28;20123;-64
2021/10/04 11:18:40;;;;;;;10.20;2.65;;;14.60;88.90;;;;;;5064557;28;20094;-64
2021/10/04 11:21:08;;;;;;;3.65;1.27;;;14.60;88.40;;;;;;5068629;28;20049;-62
2021/10/04 11:23:49;;;;;;;10.40;1.73;;;14.80;89.50;;;;;;5054195;28;20049;-62
2021/10/04 11:26:20;;;;;;;4.22;1.50;;;15.00;89.30;;;;;;5035699;28;20059;-72
2021/10/04 11:28:58;;;;;;;5.35;1.95;;;15.10;89.20;;;;;;5058584;28;20165;-72
2021/10/04 11:31:31;;;;;;;12.80;2.47;;;15.30;86.00;;;;;;5048192;28;20504;-71
2021/10/04 11:34:06;;;;;;;4.72;1.38;;;15.40;88.60;;;;;;5055738;28;20410;-71
2021/10/04 11:36:34;;;;;;;4.47;1.88;;;15.40;88.50;;;;;;5029639;28;20112;-71
2021/10/04 11:39:04;;;;;;;5.00;2.05;;;15.40;86.70;;;;;;5073736;28;20044;-71
2021/10/04 11:41:36;;;;;;;5.50;1.50;;;15.30;85.90;;;;;;5068135;28;20045;-71
2021/10/04 11:44:09;;;;;;;4.57;1.30;;;15.40;85.20;;;;;;5069050;28;20127;-71
2021/10/04 11:47:06;;;;;;;8.35;1.88;;;15.50;83.40;;;;;;5075998;28;20066;-70
2021/10/04 11:49:35;;;;;;;8.25;2.05;;;15.50;85.20;;;;;;5059060;28;20051;-64
2021/10/04 11:52:07;;;;;;;3.33;1.40;;;15.50;84.80;;;;;;5059179;28;20052;-65
2021/10/04 11:54:35;;;;;;;23.95;16.10;;;15.40;85.00;;;;;;5060553;28;20046;-67
2021/10/04 11:57:12;;;;;;;9.10;3.13;;;15.40;83.00;;;;;;5089849;28;20054;-63
2021/10/04 11:59:46;;;;;;;4.93;1.50;;;15.30;82.20;;;;;;5059578;28;20143;-63
2021/10/04 12:02:33;;;;;;;6.60;1.50;;;15.30;82.90;;;;;;5068450;28;20656;-63
2021/10/04 12:05:16;;;;;;;6.05;1.80;;;15.30;82.20;;;;;;5057817;28;20056;-63
2021/10/04 12:08:13;;;;;;;5.10;1.27;;;15.30;81.40;;;;;;5053982;28;20075;-62
2021/10/04 12:10:44;;;;;;;7.95;2.17;;;15.30;81.60;;;;;;5068995;28;20083;-62
2021/10/04 12:13:35;;;;;;;4.55;2.05;;;15.40;81.20;;;;;;5070079;28;20049;-61
2021/10/04 12:16:10;;;;;;;6.63;1.45;;;15.50;82.00;;;;;;5061673;28;20376;-62
2021/10/04 12:18:45;;;;;;;6.05;1.75;;;15.60;83.70;;;;;;5053929;28;20098;-62
2021/10/04 12:21:31;;;;;;;7.47;1.70;;;15.60;82.20;;;;;;5072354;28;20052;-62
2021/10/04 12:24:38;;;;;;;3.72;1.63;;;15.60;84.00;;;;;;5043222;28;20385;-62
2021/10/04 12:27:09;;;;;;;8.70;1.90;;;15.60;83.40;;;;;;5044527;28;20483;-62
2021/10/04 12:29:51;;;;;;;9.55;2.33;;;15.70;85.10;;;;;;5085186;28;20080;-63
2021/10/04 12:32:19;;;;;;;6.65;1.70;;;15.70;82.50;;;;;;5073143;28;20396;-62
2021/10/04 12:34:58;;;;;;;6.82;1.70;;;15.70;83.50;;;;;;5088137;28;20076;-62
2021/10/04 12:37:26;;;;;;;9.10;2.15;;;15.80;82.20;;;;;;5050190;28;20057;-61
2021/10/04 12:39:53;;;;;;;6.20;2.30;;;15.90;83.90;;;;;;5065161;28;20044;-61
2021/10/04 12:42:20;;;;;;;5.90;1.90;;;15.90;84.70;;;;;;5090569;28;20157;-62
2021/10/04 12:44:47;;;;;;;6.50;2.40;;;15.90;82.50;;;;;;5063730;28;20194;-61
2021/10/04 12:47:14;;;;;;;6.18;2.10;;;16.00;83.70;;;;;;5089992;28;20185;-61
2021/10/04 12:49:55;;;;;;;7.90;2.28;;;16.00;81.30;;;;;;5059284;28;20048;-63
2021/10/04 12:52:27;;;;;;;9.52;2.05;;;16.00;82.50;;;;;;5040088;28;20084;-63
2021/10/04 12:54:54;;;;;;;6.38;2.97;;;16.10;83.40;;;;;;5073338;28;20093;-62